Time;durP1;ratioP1;P1;durP2;ratioP2;P2;SDS_P1;SDS_P2;PMS_P1;PMS_P2;Temp;Humidity;BMP_temperature;BMP_pressure;BME280_temperature;BME280_humidity;BME280_pressure;Samples;Min_cycle;Max_cycle;Signal;HPM_P1;HPM_P2
2022/04/07 00:02:11;;;;;;;9.15;5.63;;;;;;;15.06;54.86;100238.63;5097360;28;20031;-74
2022/04/07 00:04:56;;;;;;;10.70;5.55;;;;;;;15.02;55.32;100236.22;5097847;28;20533;-74
2022/04/07 00:07:42;;;;;;;9.75;5.50;;;;;;;15.18;54.74;100221.44;5097251;28;20086;-75
2022/04/07 00:10:28;;;;;;;7.70;5.35;;;;;;;15.20;54.97;100224.84;5097469;28;20016;-74
2022/04/07 00:13:14;;;;;;;8.38;5.53;;;;;;;15.23;54.91;100220.28;5095851;28;20048;-75
2022/04/07 00:16:00;;;;;;;7.32;5.00;;;;;;;15.10;54.77;100213.81;5096024;28;20047;-75
2022/04/07 00:18:46;;;;;;;7.95;5.43;;;;;;;14.77;55.94;100202.97;5097219;28;20046;-75
2022/04/07 00:21:38;;;;;;;8.15;6.10;;;;;;;15.04;55.44;100205.31;5096772;28;20092;-76
2022/04/07 00:24:24;;;;;;;7.95;5.75;;;;;;;15.25;55.06;100204.38;5097128;28;20032;-76
2022/04/07 00:27:10;;;;;;;7.00;5.22;;;;;;;14.95;55.54;100192.53;5096947;28;20016;-75
2022/04/07 00:29:57;;;;;;;7.07;5.40;;;;;;;14.83;55.98;100178.09;5106768;28;20118;-74
2022/04/07 00:32:43;;;;;;;8.63;5.47;;;;;;;14.69;55.90;100177.84;5098198;28;20103;-74
2022/04/07 00:35:29;;;;;;;6.18;5.22;;;;;;;14.83;56.06;100178.09;5096512;28;20106;-74
2022/04/07 00:38:15;;;;;;;6.55;5.43;;;;;;;14.65;56.20;100171.84;5096555;28;20034;-74
2022/04/07 00:41:00;;;;;;;8.82;5.75;;;;;;;14.40;57.51;100165.88;5097035;28;20444;-75
2022/04/07 00:43:51;;;;;;;9.13;6.07;;;;;;;14.34;58.03;100154.72;5096498;28;20111;-74
2022/04/07 00:46:37;;;;;;;10.20;5.82;;;;;;;14.33;58.99;100148.63;5082180;28;20060;-74
2022/04/07 00:49:23;;;;;;;7.15;5.22;;;;;;;14.14;59.01;100154.66;5095609;28;20032;-74
2022/04/07 00:52:10;;;;;;;6.78;5.43;;;;;;;14.16;60.15;100164.22;5096081;28;20423;-75
2022/04/07 00:54:56;;;;;;;6.47;5.38;;;;;;;14.24;60.06;100151.63;5095660;28;20083;-74
2022/04/07 00:57:42;;;;;;;10.93;5.68;;;;;;;14.33;59.73;100153.03;5096051;28;20082;-75
2022/04/07 01:00:28;;;;;;;7.65;5.45;;;;;;;14.54;59.08;100150.34;5080881;28;20032;-75
2022/04/07 01:03:14;;;;;;;10.40;5.88;;;;;;;14.64;58.80;100143.75;5081539;28;20036;-73
2022/04/07 01:06:01;;;;;;;5.88;5.25;;;;;;;14.54;58.99;100137.16;5095024;28;20028;-74
2022/04/07 01:08:47;;;;;;;7.43;5.90;;;;;;;14.56;58.41;100137.94;5081034;28;20405;-75
2022/04/07 01:11:34;;;;;;;7.07;5.82;;;;;;;14.59;59.13;100136.97;5096517;28;20052;-75
2022/04/07 01:14:20;;;;;;;8.48;5.43;;;;;;;14.73;58.26;100137.22;5095568;28;20048;-74
2022/04/07 01:17:06;;;;;;;9.70;5.47;;;;;;;14.62;58.92;100137.69;5096020;28;20338;-74
2022/04/07 01:19:53;;;;;;;7.15;5.63;;;;;;;14.60;58.79;100133.41;5095818;28;20024;-75
2022/04/07 01:22:41;;;;;;;6.75;5.65;;;;;;;14.85;58.36;100128.78;5095714;28;20028;-75
2022/04/07 01:25:27;;;;;;;8.32;5.32;;;;;;;14.86;58.24;100133.13;5095297;28;20108;-75
2022/04/07 01:28:13;;;;;;;6.18;5.38;;;;;;;14.98;58.30;100132.59;5096074;28;20468;-74
2022/04/07 01:30:59;;;;;;;8.75;5.85;;;;;;;14.78;59.24;100128.19;5081698;28;20400;-75
2022/04/07 01:33:45;;;;;;;10.32;5.68;;;;;;;14.79;59.94;100127.25;5095370;28;20024;-74
2022/04/07 01:36:34;;;;;;;6.80;5.10;;;;;;;14.44;62.42;100127.91;5095776;28;20035;-76
2022/04/07 01:39:26;;;;;;;6.93;5.40;;;;;;;14.68;61.62;100126.88;5095232;28;20023;-74
2022/04/07 01:42:14;;;;;;;7.65;5.90;;;;;;;14.72;60.66;100117.91;5079809;28;20020;-74
2022/04/07 01:45:03;;;;;;;8.75;6.05;;;;;;;14.58;62.74;100114.16;5093478;28;20520;-75
2022/04/07 01:47:51;;;;;;;7.72;5.88;;;;;;;14.51;64.30;100115.38;5080883;28;20390;-74
2022/04/07 01:50:38;;;;;;;7.28;5.70;;;;;;;14.49;65.22;100101.38;5095042;28;20016;-75
2022/04/07 01:53:25;;;;;;;7.53;6.45;;;;;;;14.40;65.75;100097.34;5096054;28;20036;-74
2022/04/07 01:56:12;;;;;;;8.07;6.47;;;;;;;13.96;66.66;100087.81;5080230;28;20093;-75
2022/04/07 01:58:58;;;;;;;8.15;6.10;;;;;;;14.24;65.86;100087.53;5095375;28;20448;-76
2022/04/07 02:01:44;;;;;;;8.23;6.53;;;;;;;13.90;67.27;100082.78;5093341;28;20468;-73
2022/04/07 02:04:30;;;;;;;7.55;6.00;;;;;;;14.12;66.91;100072.22;5095019;28;20110;-75
2022/04/07 02:07:15;;;;;;;8.63;6.35;;;;;;;14.00;67.13;100073.59;5094398;28;20032;-75
2022/04/07 02:10:03;;;;;;;9.48;6.15;;;;;;;13.89;68.48;100070.53;5080788;28;20024;-75
2022/04/07 02:12:49;;;;;;;9.95;6.82;;;;;;;14.09;68.18;100078.47;5095172;28;20047;-74
2022/04/07 02:15:35;;;;;;;9.93;6.35;;;;;;;14.05;68.77;100065.47;5080413;28;20027;-75
2022/04/07 02:18:21;;;;;;;8.38;6.13;;;;;;;13.83;70.03;100067.31;5093886;28;20028;-75
2022/04/07 02:21:07;;;;;;;11.10;6.70;;;;;;;13.96;69.00;100055.34;5095730;27;20039;-74
2022/04/07 02:23:53;;;;;;;8.68;6.35;;;;;;;13.89;69.74;100052.09;5067595;28;20028;-75
2022/04/07 02:26:39;;;;;;;10.75;6.50;;;;;;;13.87;70.18;100040.75;5093479;28;20062;-75
2022/04/07 02:29:24;;;;;;;7.60;5.90;;;;;;;13.95;69.00;100037.84;5080933;28;20078;-76
2022/04/07 02:32:14;;;;;;;10.77;6.63;;;;;;;14.27;67.64;100040.00;5079302;28;20017;-75
2022/04/07 02:35:00;;;;;;;8.77;6.05;;;;;;;14.29;67.64;100024.97;5094641;28;20060;-74
2022/04/07 02:37:45;;;;;;;8.93;6.90;;;;;;;14.21;67.71;100029.69;5078296;28;20024;-75
2022/04/07 02:40:31;;;;;;;9.98;6.68;;;;;;;14.13;68.73;100024.75;5079528;28;20039;-75
2022/04/07 02:43:25;;;;;;;9.48;6.97;;;;;;;14.25;68.85;100018.09;5093412;28;20054;-74
2022/04/07 02:46:11;;;;;;;11.05;6.97;;;;;;;14.22;69.10;100010.31;5095021;28;20036;-74
2022/04/07 02:48:57;;;;;;;10.75;7.45;;;;;;;14.36;67.99;100007.97;5087023;28;20104;-75
2022/04/07 02:51:44;;;;;;;11.88;6.95;;;;;;;14.59;67.40;99998.09;5085182;28;20038;-75
2022/04/07 02:54:29;;;;;;;10.25;6.88;;;;;;;14.26;68.44;99998.72;5080980;28;20020;-75
2022/04/07 02:57:15;;;;;;;10.80;7.32;;;;;;;13.64;74.73;99990.88;5084330;28;20039;-74
2022/04/07 03:00:04;;;;;;;9.23;7.05;;;;;;;13.62;75.63;99973.38;5097452;28;20028;-75
2022/04/07 03:02:49;;;;;;;10.90;7.38;;;;;;;13.14;81.25;99972.78;5098725;28;20115;-74
2022/04/07 03:05:35;;;;;;;10.57;7.60;;;;;;;13.25;80.83;99970.56;5098520;28;20029;-75
2022/04/07 03:08:21;;;;;;;10.02;6.72;;;;;;;13.28;80.99;99959.91;5098165;28;20032;-75
2022/04/07 03:11:08;;;;;;;8.63;6.82;;;;;;;13.32;81.63;99949.22;5083550;28;20028;-74
2022/04/07 03:13:54;;;;;;;9.90;7.03;;;;;;;13.15;84.08;99945.56;5096642;28;20131;-75
2022/04/07 03:16:41;;;;;;;12.68;7.30;;;;;;;13.23;83.91;99935.59;5083301;28;20347;-74
2022/04/07 03:19:27;;;;;;;10.85;7.63;;;;;;;13.23;84.00;99936.41;5097633;28;20024;-75
2022/04/07 03:22:15;;;;;;;11.25;7.80;;;;;;;13.13;84.69;99939.47;5098761;28;20031;-75
2022/04/07 03:25:01;;;;;;;10.00;7.80;;;;;;;13.23;83.86;99931.16;5097150;28;20032;-75
2022/04/07 03:27:47;;;;;;;11.98;7.85;;;;;;;12.94;86.36;99920.91;5096819;28;20036;-75
2022/04/07 03:30:32;;;;;;;10.57;7.20;;;;;;;13.07;85.67;99918.72;5082500;28;20016;-75
2022/04/07 03:33:19;;;;;;;10.85;7.97;;;;;;;13.08;85.31;99923.91;5097537;28;20345;-74
2022/04/07 03:36:05;;;;;;;14.07;7.70;;;;;;;13.07;85.75;99914.28;5098070;28;20353;-74
2022/04/07 03:38:51;;;;;;;13.35;8.55;;;;;;;13.08;85.96;99909.88;5097704;28;20020;-75
2022/04/07 03:41:36;;;;;;;11.82;8.00;;;;;;;13.17;84.93;99901.63;5083975;28;20055;-74
2022/04/07 03:44:22;;;;;;;9.45;7.63;;;;;;;13.09;85.61;99901.94;5096213;28;20460;-74
2022/04/07 03:47:08;;;;;;;12.77;7.95;;;;;;;13.17;85.76;99894.59;5096605;28;20106;-75
2022/04/07 03:49:54;;;;;;;12.65;7.93;;;;;;;12.81;89.25;99895.16;5097558;28;20017;-76
2022/04/07 03:52:39;;;;;;;10.20;7.90;;;;;;;13.03;88.15;99890.81;5082783;28;20040;-75
2022/04/07 03:55:25;;;;;;;15.95;8.25;;;;;;;13.00;87.64;99877.78;5096308;28;20024;-75
2022/04/07 03:58:11;;;;;;;15.02;8.65;;;;;;;12.99;88.24;99884.81;5097422;28;20024;-76
2022/04/07 04:00:58;;;;;;;10.18;8.13;;;;;;;12.81;89.37;99875.00;5096762;28;20028;-76
2022/04/07 04:03:44;;;;;;;11.48;8.13;;;;;;;12.94;89.49;99870.97;5097069;28;20038;-76
2022/04/07 04:06:30;;;;;;;12.20;8.25;;;;;;;12.91;89.19;99867.63;5096531;28;20433;-75
2022/04/07 04:09:16;;;;;;;13.13;8.60;;;;;;;12.85;91.51;99866.09;5095915;28;20036;-76
2022/04/07 04:12:03;;;;;;;11.10;8.40;;;;;;;12.93;88.83;99855.25;5095998;28;20452;-75
2022/04/07 04:14:49;;;;;;;14.15;8.27;;;;;;;12.99;88.25;99862.94;5082241;28;20448;-75
2022/04/07 04:17:35;;;;;;;14.13;8.35;;;;;;;12.82;92.40;99852.22;5083286;28;20474;-76
2022/04/07 04:20:20;;;;;;;12.07;8.32;;;;;;;12.88;90.56;99844.94;5096719;28;20035;-75
2022/04/07 04:23:06;;;;;;;13.50;8.85;;;;;;;13.01;88.87;99835.66;5097322;28;20019;-75
2022/04/07 04:25:52;;;;;;;13.75;9.00;;;;;;;12.90;88.97;99837.84;5096803;28;20420;-75
2022/04/07 04:28:38;;;;;;;13.20;8.60;;;;;;;12.99;86.80;99837.47;5096785;28;20028;-76
2022/04/07 04:31:24;;;;;;;14.52;9.27;;;;;;;13.07;86.36;99840.66;5096236;28;20451;-75
2022/04/07 04:34:10;;;;;;;11.50;8.40;;;;;;;13.20;85.13;99838.38;5097083;28;20043;-75
2022/04/07 04:36:56;;;;;;;12.75;8.48;;;;;;;13.31;84.27;99842.25;5081483;28;20150;-74
2022/04/07 04:39:42;;;;;;;17.40;10.43;;;;;;;13.43;84.94;99839.09;5095403;28;20190;-75
2022/04/07 04:42:27;;;;;;;17.10;9.77;;;;;;;13.06;89.90;99838.13;5096300;28;20066;-75
2022/04/07 04:45:13;;;;;;;15.68;9.90;;;;;;;13.12;89.62;99832.59;5081407;28;20089;-75
2022/04/07 04:48:00;;;;;;;17.52;9.30;;;;;;;12.93;91.37;99824.56;5082129;28;20032;-75
2022/04/07 04:50:46;;;;;;;15.77;9.80;;;;;;;12.94;92.17;99823.66;5096578;28;20035;-75
2022/04/07 04:53:32;;;;;;;16.58;10.20;;;;;;;12.97;92.43;99820.94;5096138;28;20039;-75
2022/04/07 04:56:20;;;;;;;19.35;10.90;;;;;;;13.08;91.59;99817.84;5095277;28;20367;-75
2022/04/07 04:59:05;;;;;;;20.48;10.98;;;;;;;13.13;90.69;99810.63;5095634;28;20028;-75
2022/04/07 05:01:51;;;;;;;20.10;10.13;;;;;;;13.24;87.93;99811.03;5094713;28;20081;-76
2022/04/07 05:04:37;;;;;;;17.23;10.15;;;;;;;13.25;88.41;99799.56;5095485;28;20031;-75
2022/04/07 05:07:23;;;;;;;21.65;9.30;;;;;;;13.47;85.60;99803.00;5095707;28;20110;-73
2022/04/07 05:10:09;;;;;;;18.30;10.88;;;;;;;13.32;90.80;99798.41;5092534;28;20111;-76
2022/04/07 05:12:54;;;;;;;16.05;10.18;;;;;;;13.34;90.27;99794.78;5094783;28;20060;-75
2022/04/07 05:15:40;;;;;;;18.92;10.00;;;;;;;13.50;90.63;99787.94;5080135;28;20039;-75
2022/04/07 05:18:26;;;;;;;16.70;11.05;;;;;;;13.63;87.59;99783.81;5095620;28;20302;-75
2022/04/07 05:21:14;;;;;;;18.65;10.30;;;;;;;13.55;87.04;99772.78;5095163;28;20115;-76
2022/04/07 05:24:01;;;;;;;16.98;9.73;;;;;;;13.77;84.05;99775.31;5080321;28;20048;-76
2022/04/07 05:26:47;;;;;;;16.42;9.40;;;;;;;13.90;81.75;99768.56;5095737;28;20056;-75
2022/04/07 05:29:33;;;;;;;16.58;9.52;;;;;;;13.94;80.79;99772.75;5096505;28;20028;-75
2022/04/07 05:32:18;;;;;;;15.35;9.60;;;;;;;14.08;79.21;99773.84;5095939;28;20035;-75
2022/04/07 05:35:04;;;;;;;17.33;10.10;;;;;;;14.18;78.53;99767.22;5094685;28;20038;-75
2022/04/07 05:37:50;;;;;;;17.70;10.07;;;;;;;14.22;77.67;99770.59;5094483;28;20051;-75
2022/04/07 05:40:36;;;;;;;19.63;9.80;;;;;;;14.34;78.04;99768.25;5080790;28;20131;-75
2022/04/07 05:43:22;;;;;;;17.23;9.32;;;;;;;14.50;71.88;99758.66;5094992;28;20028;-75
2022/04/07 05:46:08;;;;;;;13.30;9.40;;;;;;;14.67;71.76;99763.97;5095692;28;20028;-76
2022/04/07 05:48:53;;;;;;;13.23;8.98;;;;;;;14.80;70.11;99754.50;5095701;28;20427;-76
2022/04/07 05:51:39;;;;;;;16.20;8.80;;;;;;;15.08;68.44;99754.00;5080240;28;20035;-76
2022/04/07 05:54:25;;;;;;;13.60;8.50;;;;;;;15.14;66.05;99755.47;5095069;28;20055;-75
2022/04/07 05:57:10;;;;;;;12.20;7.95;;;;;;;15.39;64.24;99738.31;5080073;28;20054;-76
2022/04/07 06:00:02;;;;;;;14.27;7.78;;;;;;;15.74;62.22;99739.06;5080309;28;20038;-76
2022/04/07 06:02:48;;;;;;;10.60;6.68;;;;;;;15.68;58.32;99734.13;5094078;28;20367;-75
2022/04/07 06:05:35;;;;;;;11.50;6.80;;;;;;;15.86;56.94;99736.63;5087731;28;20265;-74
2022/04/07 06:08:21;;;;;;;9.13;6.50;;;;;;;16.36;55.19;99734.66;5072967;28;20046;-76
2022/04/07 06:11:07;;;;;;;9.35;6.80;;;;;;;16.55;54.27;99732.72;5070789;28;20028;-75
2022/04/07 06:13:53;;;;;;;11.02;6.88;;;;;;;16.90;53.32;99728.03;5072675;28;20484;-74
2022/04/07 06:16:39;;;;;;;10.23;5.85;;;;;;;16.83;51.49;99722.25;5085107;28;20090;-75
2022/04/07 06:19:24;;;;;;;10.35;6.10;;;;;;;17.07;50.63;99727.88;5087874;28;20028;-75
2022/04/07 06:22:12;;;;;;;12.48;6.68;;;;;;;17.24;50.46;99715.34;5070436;28;20035;-76
2022/04/07 06:24:58;;;;;;;8.35;6.50;;;;;;;17.14;48.97;99718.63;5072097;28;20040;-75
2022/04/07 06:27:45;;;;;;;11.88;6.85;;;;;;;16.95;49.28;99705.66;5087391;28;20032;-75
2022/04/07 06:30:31;;;;;;;8.18;6.10;;;;;;;17.33;49.25;99703.34;5087294;28;20020;-72
2022/04/07 06:33:18;;;;;;;12.60;5.95;;;;;;;17.19;47.93;99709.47;5084331;28;20059;-74
2022/04/07 06:36:04;;;;;;;10.70;6.10;;;;;;;17.30;46.96;99699.09;5071993;28;20368;-75
2022/04/07 06:38:50;;;;;;;7.82;5.70;;;;;;;17.09;47.49;99679.25;5071775;28;20035;-73
2022/04/07 06:41:35;;;;;;;12.40;5.88;;;;;;;17.37;46.91;99670.44;5072643;28;20024;-75
2022/04/07 06:44:21;;;;;;;9.27;5.20;;;;;;;17.59;46.10;99660.25;5087289;28;20499;-75
2022/04/07 06:47:07;;;;;;;9.07;5.68;;;;;;;17.38;45.35;99656.25;5085634;28;20039;-74
2022/04/07 06:49:53;;;;;;;8.38;5.47;;;;;;;17.68;44.83;99649.94;5087032;28;20364;-77
2022/04/07 06:52:40;;;;;;;10.02;5.78;;;;;;;17.91;44.57;99662.59;5070940;28;20032;-76
2022/04/07 06:55:26;;;;;;;11.23;5.60;;;;;;;17.71;43.88;99659.47;5071872;28;21270;-76
2022/04/07 06:58:14;;;;;;;9.38;5.18;;;;;;;18.06;43.71;99653.66;5086132;28;20028;-75
2022/04/07 07:01:00;;;;;;;16.60;5.13;;;;;;;18.33;43.01;99662.44;5087816;28;20471;-78
2022/04/07 07:03:45;;;;;;;12.05;5.30;;;;;;;18.06;42.36;99655.44;5071092;28;20050;-76
2022/04/07 07:06:31;;;;;;;6.95;4.75;;;;;;;18.45;42.14;99656.34;5086357;28;20085;-76
2022/04/07 07:09:17;;;;;;;7.90;4.82;;;;;;;18.61;41.50;99648.25;5085111;28;20527;-75
2022/04/07 07:12:03;;;;;;;11.98;5.13;;;;;;;18.57;41.51;99639.63;5084026;28;20115;-77
2022/04/07 07:14:49;;;;;;;11.73;4.57;;;;;;;18.30;40.96;99637.94;5084622;28;20147;-75
2022/04/07 07:17:39;;;;;;;8.48;4.68;;;;;;;18.78;39.98;99640.00;5084224;28;20073;-77
2022/04/07 07:20:25;;;;;;;9.32;4.90;;;;;;;19.10;39.70;99642.13;5086448;28;20460;-77
2022/04/07 07:23:11;;;;;;;7.68;4.47;;;;;;;19.32;38.89;99643.34;5082222;28;20028;-76
2022/04/07 07:25:57;;;;;;;9.57;4.63;;;;;;;19.02;37.78;99643.63;5086476;28;20550;-75
2022/04/07 07:28:42;;;;;;;8.40;4.80;;;;;;;19.13;37.65;99646.41;5079587;28;20341;-75
2022/04/07 07:31:30;;;;;;;11.35;4.80;;;;;;;19.25;38.39;99637.59;5071913;28;20032;-76
2022/04/07 07:34:15;;;;;;;11.60;4.93;;;;;;;19.58;37.19;99635.25;5070720;28;20039;-75
2022/04/07 07:37:01;;;;;;;13.13;4.53;;;;;;;19.00;37.32;99640.22;5085475;28;20028;-76
2022/04/07 07:39:48;;;;;;;17.35;4.95;;;;;;;19.27;36.79;99633.03;5085438;28;20043;-76
2022/04/07 07:42:38;;;;;;;11.82;5.10;;;;;;;19.09;36.96;99627.16;5089443;28;20401;-75
2022/04/07 07:45:25;;;;;;;10.13;5.20;;;;;;;19.65;37.28;99623.19;5073613;28;20078;-76
2022/04/07 07:48:12;;;;;;;7.68;4.68;;;;;;;19.21;36.68;99623.66;5073253;28;20099;-76
2022/04/07 07:50:58;;;;;;;9.68;4.90;;;;;;;19.31;36.20;99613.28;5076006;28;20036;-76
2022/04/07 07:53:45;;;;;;;9.90;4.63;;;;;;;19.60;36.61;99606.72;5088089;28;20032;-75
2022/04/07 07:56:31;;;;;;;8.70;4.50;;;;;;;19.30;36.54;99611.59;5089534;28;20035;-76
2022/04/07 07:59:20;;;;;;;9.50;4.40;;;;;;;19.79;35.95;99630.19;5074809;28;20032;-76
2022/04/07 08:02:06;;;;;;;9.25;5.35;;;;;;;19.76;36.49;99628.59;5087131;28;20119;-75
2022/04/07 08:04:52;;;;;;;7.97;5.03;;;;;;;19.88;36.29;99617.06;5089318;28;20028;-77
2022/04/07 08:07:42;;;;;;;8.10;5.05;;;;;;;20.05;36.50;99619.34;5086588;28;20028;-77
2022/04/07 08:10:28;;;;;;;8.15;5.07;;;;;;;20.12;35.85;99611.78;5073822;28;20020;-76
2022/04/07 08:13:14;;;;;;;10.57;4.88;;;;;;;20.12;35.87;99609.13;5087495;28;20055;-75
2022/04/07 08:16:02;;;;;;;9.02;4.70;;;;;;;19.86;36.02;99608.38;5089059;28;20058;-75
2022/04/07 08:18:48;;;;;;;12.07;5.28;;;;;;;20.10;35.73;99601.28;5088710;28;20051;-75
2022/04/07 08:21:34;;;;;;;7.90;5.03;;;;;;;20.46;35.98;99601.22;5089002;28;20054;-74
2022/04/07 08:24:22;;;;;;;10.20;5.20;;;;;;;20.20;35.76;99594.31;5089666;28;20036;-76
2022/04/07 08:27:08;;;;;;;13.20;5.03;;;;;;;19.99;36.53;99587.91;5086858;28;20140;-75
2022/04/07 08:29:54;;;;;;;9.05;5.20;;;;;;;19.99;36.67;99593.22;5088008;28;20047;-75
2022/04/07 08:32:39;;;;;;;7.30;5.00;;;;;;;20.21;36.20;99590.69;5084252;28;20024;-74
2022/04/07 08:35:25;;;;;;;10.50;5.10;;;;;;;20.56;35.91;99588.03;5073991;28;20128;-72
2022/04/07 08:38:15;;;;;;;12.77;5.57;;;;;;;20.22;36.08;99589.75;5087555;28;20020;-72
2022/04/07 08:41:01;;;;;;;10.50;5.03;;;;;;;20.42;35.96;99577.59;5075146;28;20515;-72
2022/04/07 08:43:47;;;;;;;9.93;5.32;;;;;;;20.67;35.68;99577.44;5086719;28;20270;-76
2022/04/07 08:46:33;;;;;;;11.75;6.20;;;;;;;20.91;36.03;99560.44;5089132;28;20032;-75
2022/04/07 08:49:23;;;;;;;7.45;5.40;;;;;;;21.31;35.80;99559.00;5089317;28;20031;-73
2022/04/07 08:52:11;;;;;;;10.80;5.38;;;;;;;21.36;35.51;99558.63;5072914;28;20366;-74
2022/04/07 08:54:57;;;;;;;11.45;6.40;;;;;;;21.45;35.78;99556.06;5088690;28;20051;-76
2022/04/07 08:57:43;;;;;;;10.55;5.07;;;;;;;21.21;35.18;99543.84;5072053;28;20399;-76
2022/04/07 09:00:29;;;;;;;8.93;5.13;;;;;;;21.36;35.11;99545.31;5087517;28;20039;-76
2022/04/07 09:03:15;;;;;;;12.85;4.45;;;;;;;20.60;36.27;99545.13;5070808;28;20027;-76
2022/04/07 09:06:03;;;;;;;10.30;4.60;;;;;;;20.54;36.36;99542.91;5088149;28;20047;-77
2022/04/07 09:08:49;;;;;;;11.02;4.90;;;;;;;20.59;36.71;99546.09;5073451;28;20032;-75
2022/04/07 09:11:35;;;;;;;11.18;5.13;;;;;;;21.09;36.65;99535.03;5087536;28;20020;-75
2022/04/07 09:14:21;;;;;;;12.55;4.82;;;;;;;20.67;36.53;99538.34;5072715;28;20388;-74
2022/04/07 09:17:08;;;;;;;7.03;4.10;;;;;;;20.59;35.77;99539.91;5087183;28;20519;-77
2022/04/07 09:19:53;;;;;;;6.80;4.20;;;;;;;20.43;35.84;99550.88;5086630;28;20032;-77
2022/04/07 09:22:39;;;;;;;8.65;4.20;;;;;;;20.26;36.28;99545.13;5085822;28;20093;-76
2022/04/07 09:25:26;;;;;;;12.23;5.28;;;;;;;20.18;37.42;99556.38;5087245;28;20036;-75
2022/04/07 09:28:12;;;;;;;14.23;4.50;;;;;;;19.82;41.31;99552.88;5088780;28;20028;-75
2022/04/07 09:31:00;;;;;;;19.95;4.70;;;;;;;19.80;46.13;99557.47;5073686;28;20035;-76
2022/04/07 09:33:53;;;;;;;15.05;4.15;;;;;;;19.33;54.70;99549.44;5071721;28;20023;-76
2022/04/07 09:36:38;;;;;;;11.63;4.10;;;;;;;18.60;63.22;99545.72;5085308;28;20023;-76
2022/04/07 09:39:24;;;;;;;15.00;4.60;;;;;;;18.31;72.39;99539.72;5087338;28;20408;-76
2022/04/07 09:42:25;;;;;;;13.77;4.60;;;;;;;17.73;88.79;99544.50;5085914;28;20475;-76
2022/04/07 09:45:13;;;;;;;13.38;4.15;;;;;;;18.34;84.26;99536.03;5075325;28;20035;-78
2022/04/07 09:47:59;;;;;;;13.35;4.10;;;;;;;18.32;84.80;99524.66;5074500;28;20634;-76
2022/04/07 09:51:02;;;;;;;11.60;4.20;;;;;;;17.92;85.43;99523.00;5085174;28;20028;-78
2022/04/07 09:53:50;;;;;;;14.90;4.43;;;;;;;18.12;94.86;99518.03;5070181;28;20024;-77
2022/04/07 09:56:39;;;;;;;21.45;4.82;;;;;;;17.88;100.00;99518.84;5087354;28;20024;-77
2022/04/07 09:59:28;;;;;;;15.23;5.10;;;;;;;17.90;99.50;99512.50;5087775;28;20101;-77
2022/04/07 10:02:17;;;;;;;14.55;4.70;;;;;;;17.35;95.55;99503.75;5083203;28;20032;-76
2022/04/07 10:05:03;;;;;;;13.68;4.47;;;;;;;17.51;97.56;99507.13;5085845;28;20155;-77
2022/04/07 10:07:50;;;;;;;14.57;4.57;;;;;;;17.53;96.12;99504.41;5070979;28;21128;-75
2022/04/07 10:10:36;;;;;;;13.90;5.30;;;;;;;17.25;100.00;99507.94;5087755;28;20035;-76
2022/04/07 10:13:26;;;;;;;15.93;5.20;;;;;;;17.33;100.00;99505.63;5078108;23;20053;-76
2022/04/07 10:16:22;;;;;;;15.30;5.50;;;;;;;17.12;100.00;99492.94;5053267;28;20036;-77
2022/04/07 10:19:29;;;;;;;11.38;5.30;;;;;;;17.17;100.00;99489.06;5053577;28;20032;-76
2022/04/07 10:22:53;;;;;;;22.50;6.30;;;;;;;17.05;100.00;99492.47;5051479;28;20155;-76
2022/04/07 10:25:49;;;;;;;18.10;5.15;;;;;;;16.43;100.00;99492.00;4948510;28;20039;-75
2022/04/07 10:28:35;;;;;;;17.10;5.38;;;;;;;16.84;100.00;99492.97;5047055;28;20476;-75
2022/04/07 10:31:22;;;;;;;19.10;5.18;;;;;;;16.74;100.00;99479.47;5045622;28;20040;-77
2022/04/07 10:34:08;;;;;;;12.07;5.40;;;;;;;16.42;100.00;99487.66;5045612;28;20046;-77
2022/04/07 10:37:02;;;;;;;18.42;5.40;;;;;;;16.13;100.00;99489.38;5032085;28;20102;-77
2022/04/07 10:39:50;;;;;;;18.38;5.93;;;;;;;16.33;100.00;99499.59;5045814;28;20035;-75
2022/04/07 10:43:03;;;;;;;14.10;5.85;;;;;;;16.90;100.00;99492.56;5045436;28;20397;-77
2022/04/07 10:46:11;;;;;;;11.88;4.90;;;;;;;16.60;100.00;99499.75;5045061;28;20029;-74
2022/04/07 10:49:05;;;;;;;16.70;5.00;;;;;;;16.78;100.00;99486.25;5032401;28;20029;-70
2022/04/07 10:51:56;;;;;;;11.43;5.47;;;;;;;16.56;100.00;99479.75;5046373;28;20120;-76
2022/04/07 10:55:11;;;;;;;13.00;5.40;;;;;;;16.58;100.00;99483.13;5047085;28;20029;-73
2022/04/07 10:58:10;;;;;;;11.98;5.55;;;;;;;16.77;100.00;99494.28;5032848;28;20021;-76
2022/04/07 11:00:57;;;;;;;12.48;4.68;;;;;;;16.68;100.00;99486.91;5047499;28;20453;-76
2022/04/07 11:04:18;;;;;;;13.38;5.47;;;;;;;16.74;100.00;99478.59;5032311;28;20357;-77
2022/04/07 11:10:13;;;;;;;10.98;5.07;;;;;;;17.07;98.25;99490.56;5046069;28;20185;-77
2022/04/07 11:13:01;;;;;;;13.50;5.57;;;;;;;17.12;95.90;99500.88;5045960;28;20413;-77
2022/04/07 11:15:51;;;;;;;11.52;4.57;;;;;;;16.72;99.26;99489.25;5047738;28;20029;-77
2022/04/07 11:18:48;;;;;;;10.00;4.57;;;;;;;17.24;97.84;99494.81;5051686;28;20025;-76
2022/04/07 11:21:45;;;;;;;9.77;4.82;;;;;;;17.07;100.00;99492.34;5051159;28;20444;-76
2022/04/07 11:24:33;;;;;;;10.35;4.20;;;;;;;16.89;97.18;99498.81;5050006;28;20039;-75
2022/04/07 11:27:47;;;;;;;9.90;4.45;;;;;;;16.96;97.33;99505.44;5048072;28;20055;-76
2022/04/07 11:30:56;;;;;;;13.77;4.72;;;;;;;16.81;100.00;99509.88;5035929;28;20521;-76
2022/04/07 11:33:42;;;;;;;10.32;5.13;;;;;;;16.33;100.00;99518.13;5049178;28;20084;-75
2022/04/07 11:36:33;;;;;;;9.27;4.57;;;;;;;16.39;100.00;99527.47;5034936;28;20116;-77
2022/04/07 11:39:19;;;;;;;12.63;4.78;;;;;;;16.20;100.00;99535.63;5033813;28;20044;-76
2022/04/07 11:42:11;;;;;;;12.20;4.60;;;;;;;16.21;100.00;99537.34;5049385;28;20058;-75
2022/04/07 11:45:01;;;;;;;13.77;5.43;;;;;;;15.95;100.00;99537.16;5048441;28;20394;-75
2022/04/07 11:47:49;;;;;;;17.73;6.32;;;;;;;15.39;100.00;99537.72;5048058;28;20051;-75
2022/04/07 11:50:38;;;;;;;15.68;6.35;;;;;;;15.00;100.00;99539.88;5035841;28;20044;-75
2022/04/07 11:53:24;;;;;;;12.20;6.70;;;;;;;14.87;100.00;99536.19;5048685;28;20037;-75
2022/04/07 11:56:20;;;;;;;9.70;5.72;;;;;;;14.95;100.00;99541.06;5048817;28;20090;-76
2022/04/07 11:59:34;;;;;;;11.25;6.22;;;;;;;14.66;100.00;99532.06;5049717;28;20043;-77
2022/04/07 12:02:24;;;;;;;11.60;6.13;;;;;;;14.54;100.00;99535.31;5044879;28;20033;-75
2022/04/07 12:05:14;;;;;;;13.98;6.20;;;;;;;14.79;100.00;99525.19;5051071;28;20093;-76
2022/04/07 12:08:13;;;;;;;9.52;6.35;;;;;;;14.82;100.00;99525.91;5049354;28;20471;-77
2022/04/07 12:10:59;;;;;;;9.65;6.18;;;;;;;14.46;100.00;99519.91;5050790;28;20037;-78
2022/04/07 12:13:47;;;;;;;13.13;7.15;;;;;;;14.38;100.00;99516.84;5048193;28;20048;-76
2022/04/07 12:16:33;;;;;;;12.50;6.85;;;;;;;14.59;100.00;99512.25;5049288;28;20041;-76
2022/04/07 12:19:19;;;;;;;13.85;6.70;;;;;;;14.59;100.00;99514.88;5033608;28;20032;-76
2022/04/07 12:22:05;;;;;;;14.88;6.60;;;;;;;14.63;100.00;99509.34;5047353;28;20037;-77
2022/04/07 12:25:07;;;;;;;13.48;6.53;;;;;;;14.31;100.00;99501.44;5035039;28;20028;-76
2022/04/07 12:28:18;;;;;;;14.32;6.15;;;;;;;13.94;100.00;99526.13;5033393;28;20127;-77
2022/04/07 12:31:24;;;;;;;14.90;7.07;;;;;;;14.09;100.00;99524.50;5034075;28;20140;-75
2022/04/07 12:34:19;;;;;;;11.15;7.20;;;;;;;14.17;100.00;99519.69;5046942;28;20036;-77
2022/04/07 12:37:07;;;;;;;15.43;7.80;;;;;;;14.00;100.00;99515.28;5048714;28;20106;-76
2022/04/07 12:39:57;;;;;;;20.35;8.02;;;;;;;14.22;100.00;99513.28;5048997;28;20503;-76
2022/04/07 12:42:56;;;;;;;19.00;8.15;;;;;;;14.04;100.00;99521.25;5047835;28;20032;-76
2022/04/07 12:45:57;;;;;;;18.35;9.13;;;;;;;14.33;100.00;99515.38;5032211;28;20056;-77
2022/04/07 12:49:06;;;;;;;23.00;11.93;;;;;;;14.08;100.00;99518.38;5034785;28;20058;-76
2022/04/07 12:52:11;;;;;;;20.10;10.00;;;;;;;14.57;100.00;99512.31;5033232;28;20891;-76
2022/04/07 12:54:59;;;;;;;31.10;13.25;;;;;;;14.56;100.00;99512.38;5048420;28;20040;-76
2022/04/07 12:57:45;;;;;;;27.48;17.08;;;;;;;14.43;100.00;99506.91;5048820;28;20360;-76
2022/04/07 13:00:33;;;;;;;30.38;15.10;;;;;;;14.75;100.00;99507.81;5047998;28;20101;-76
2022/04/07 13:03:18;;;;;;;26.48;12.82;;;;;;;14.07;100.00;99500.84;5047426;28;20180;-75
2022/04/07 13:06:11;;;;;;;26.65;13.05;;;;;;;14.44;100.00;99508.59;5048934;28;20048;-74